sensor_id;sensor_type;location;lat;lon;timestamp;P1;durP1;ratioP1;P2;durP2;ratioP2
69719;SDS011;56988;56.122;13.798;2024-02-21T00:01:00;35.65;;;10.02;;
69719;SDS011;56988;56.122;13.798;2024-02-21T00:02:00;63.47;;;11.50;;
69719;SDS011;56988;56.122;13.798;2024-02-21T00:03:00;49.63;;;9.85;;
69719;SDS011;56988;56.122;13.798;2024-02-21T00:04:02;51.40;;;10.57;;
69719;SDS011;56988;56.122;13.798;2024-02-21T00:05:02;64.32;;;10.43;;
69719;SDS011;56988;56.122;13.798;2024-02-21T00:06:03;44.75;;;10.20;;
69719;SDS011;56988;56.122;13.798;2024-02-21T00:07:03;46.47;;;10.68;;
69719;SDS011;56988;56.122;13.798;2024-02-21T00:08:03;49.65;;;11.10;;
69719;SDS011;56988;56.122;13.798;2024-02-21T00:09:04;49.28;;;11.88;;
69719;SDS011;56988;56.122;13.798;2024-02-21T00:10:04;48.90;;;11.17;;
69719;SDS011;56988;56.122;13.798;2024-02-21T00:11:05;50.10;;;10.73;;
69719;SDS011;56988;56.122;13.798;2024-02-21T00:12:05;48.50;;;10.88;;
69719;SDS011;56988;56.122;13.798;2024-02-21T00:13:05;41.28;;;11.35;;
69719;SDS011;56988;56.122;13.798;2024-02-21T00:14:05;58.90;;;11.75;;
69719;SDS011;56988;56.122;13.798;2024-02-21T00:15:06;59.33;;;10.40;;
69719;SDS011;56988;56.122;13.798;2024-02-21T00:16:06;53.72;;;11.70;;
69719;SDS011;56988;56.122;13.798;2024-02-21T00:17:06;54.83;;;12.07;;
69719;SDS011;56988;56.122;13.798;2024-02-21T00:18:08;52.60;;;11.13;;
69719;SDS011;56988;56.122;13.798;2024-02-21T00:19:10;58.28;;;11.32;;
69719;SDS011;56988;56.122;13.798;2024-02-21T00:20:11;57.43;;;12.83;;
69719;SDS011;56988;56.122;13.798;2024-02-21T00:21:11;54.08;;;12.80;;
69719;SDS011;56988;56.122;13.798;2024-02-21T00:22:17;61.05;;;12.63;;
69719;SDS011;56988;56.122;13.798;2024-02-21T00:23:18;62.23;;;13.07;;
69719;SDS011;56988;56.122;13.798;2024-02-21T00:24:18;51.77;;;12.40;;
69719;SDS011;56988;56.122;13.798;2024-02-21T00:25:18;45.67;;;12.23;;
69719;SDS011;56988;56.122;13.798;2024-02-21T00:26:18;56.43;;;12.10;;
69719;SDS011;56988;56.122;13.798;2024-02-21T00:27:18;57.37;;;13.37;;
69719;SDS011;56988;56.122;13.798;2024-02-21T00:28:19;60.80;;;12.70;;
69719;SDS011;56988;56.122;13.798;2024-02-21T00:30:19;47.20;;;12.07;;
69719;SDS011;56988;56.122;13.798;2024-02-21T00:31:19;60.10;;;12.43;;
69719;SDS011;56988;56.122;13.798;2024-02-21T00:32:19;50.70;;;12.47;;
69719;SDS011;56988;56.122;13.798;2024-02-21T00:34:20;50.40;;;12.57;;
69719;SDS011;56988;56.122;13.798;2024-02-21T00:35:21;53.78;;;13.00;;
69719;SDS011;56988;56.122;13.798;2024-02-21T00:36:21;56.47;;;12.45;;
69719;SDS011;56988;56.122;13.798;2024-02-21T00:37:21;66.30;;;13.23;;
69719;SDS011;56988;56.122;13.798;2024-02-21T00:39:22;44.83;;;12.93;;
69719;SDS011;56988;56.122;13.798;2024-02-21T00:40:22;53.43;;;14.10;;
69719;SDS011;56988;56.122;13.798;2024-02-21T00:41:23;57.00;;;13.38;;
69719;SDS011;56988;56.122;13.798;2024-02-21T00:43:23;57.03;;;12.97;;
69719;SDS011;56988;56.122;13.798;2024-02-21T00:44:24;47.40;;;14.73;;
69719;SDS011;56988;56.122;13.798;2024-02-21T00:45:24;56.38;;;14.32;;
69719;SDS011;56988;56.122;13.798;2024-02-21T00:47:25;49.20;;;12.43;;
69719;SDS011;56988;56.122;13.798;2024-02-21T00:48:25;59.50;;;15.68;;
69719;SDS011;56988;56.122;13.798;2024-02-21T00:50:25;60.17;;;15.63;;
69719;SDS011;56988;56.122;13.798;2024-02-21T00:51:25;54.60;;;16.85;;
69719;SDS011;56988;56.122;13.798;2024-02-21T00:52:26;62.90;;;16.97;;
69719;SDS011;56988;56.122;13.798;2024-02-21T00:53:26;56.20;;;17.10;;
69719;SDS011;56988;56.122;13.798;2024-02-21T00:54:26;68.73;;;18.27;;
69719;SDS011;56988;56.122;13.798;2024-02-21T00:55:26;73.32;;;19.40;;
69719;SDS011;56988;56.122;13.798;2024-02-21T00:56:26;74.57;;;20.52;;
69719;SDS011;56988;56.122;13.798;2024-02-21T00:57:27;71.40;;;20.98;;
69719;SDS011;56988;56.122;13.798;2024-02-21T00:58:27;67.68;;;20.77;;
69719;SDS011;56988;56.122;13.798;2024-02-21T00:59:27;71.80;;;22.25;;
69719;SDS011;56988;56.122;13.798;2024-02-21T01:00:27;71.40;;;23.80;;
69719;SDS011;56988;56.122;13.798;2024-02-21T01:01:27;63.27;;;23.10;;
69719;SDS011;56988;56.122;13.798;2024-02-21T01:02:28;71.97;;;24.48;;
69719;SDS011;56988;56.122;13.798;2024-02-21T01:03:28;75.60;;;24.85;;
69719;SDS011;56988;56.122;13.798;2024-02-21T01:04:28;73.63;;;23.17;;
69719;SDS011;56988;56.122;13.798;2024-02-21T01:05:28;65.50;;;23.37;;
69719;SDS011;56988;56.122;13.798;2024-02-21T01:06:29;73.63;;;22.88;;
69719;SDS011;56988;56.122;13.798;2024-02-21T01:07:29;68.28;;;21.83;;
69719;SDS011;56988;56.122;13.798;2024-02-21T01:09:29;68.20;;;21.33;;
69719;SDS011;56988;56.122;13.798;2024-02-21T01:11:30;63.93;;;20.80;;
69719;SDS011;56988;56.122;13.798;2024-02-21T01:12:30;68.97;;;22.37;;
69719;SDS011;56988;56.122;13.798;2024-02-21T01:13:30;58.40;;;18.23;;
69719;SDS011;56988;56.122;13.798;2024-02-21T01:14:30;54.70;;;20.17;;
69719;SDS011;56988;56.122;13.798;2024-02-21T01:15:30;54.90;;;19.23;;
69719;SDS011;56988;56.122;13.798;2024-02-21T01:16:31;69.85;;;20.42;;
69719;SDS011;56988;56.122;13.798;2024-02-21T01:17:31;55.05;;;19.80;;
69719;SDS011;56988;56.122;13.798;2024-02-21T01:18:34;70.20;;;19.00;;
69719;SDS011;56988;56.122;13.798;2024-02-21T01:19:34;62.90;;;19.30;;
69719;SDS011;56988;56.122;13.798;2024-02-21T01:20:34;62.13;;;18.87;;
69719;SDS011;56988;56.122;13.798;2024-02-21T01:21:35;66.00;;;18.40;;
69719;SDS011;56988;56.122;13.798;2024-02-21T01:22:35;59.10;;;18.52;;
69719;SDS011;56988;56.122;13.798;2024-02-21T01:23:35;64.23;;;17.03;;
69719;SDS011;56988;56.122;13.798;2024-02-21T01:24:36;70.05;;;19.27;;
69719;SDS011;56988;56.122;13.798;2024-02-21T01:25:36;66.80;;;18.90;;
69719;SDS011;56988;56.122;13.798;2024-02-21T01:26:36;60.45;;;18.38;;
69719;SDS011;56988;56.122;13.798;2024-02-21T01:27:36;72.33;;;18.03;;
69719;SDS011;56988;56.122;13.798;2024-02-21T01:28:37;52.63;;;18.07;;
69719;SDS011;56988;56.122;13.798;2024-02-21T01:29:37;53.03;;;18.58;;
69719;SDS011;56988;56.122;13.798;2024-02-21T01:30:37;70.90;;;18.50;;
69719;SDS011;56988;56.122;13.798;2024-02-21T01:31:37;61.85;;;18.88;;
69719;SDS011;56988;56.122;13.798;2024-02-21T01:32:38;59.00;;;18.73;;
69719;SDS011;56988;56.122;13.798;2024-02-21T01:33:38;65.10;;;17.87;;
69719;SDS011;56988;56.122;13.798;2024-02-21T01:34:38;71.93;;;19.77;;
69719;SDS011;56988;56.122;13.798;2024-02-21T01:35:39;63.77;;;20.40;;
69719;SDS011;56988;56.122;13.798;2024-02-21T01:36:39;77.60;;;19.00;;
69719;SDS011;56988;56.122;13.798;2024-02-21T01:37:39;54.08;;;17.75;;
69719;SDS011;56988;56.122;13.798;2024-02-21T01:38:39;62.27;;;19.40;;
69719;SDS011;56988;56.122;13.798;2024-02-21T01:39:40;69.90;;;18.33;;
69719;SDS011;56988;56.122;13.798;2024-02-21T01:40:40;56.30;;;16.88;;
69719;SDS011;56988;56.122;13.798;2024-02-21T01:41:40;57.17;;;16.67;;
69719;SDS011;56988;56.122;13.798;2024-02-21T01:42:40;56.00;;;17.48;;
69719;SDS011;56988;56.122;13.798;2024-02-21T01:43:40;56.57;;;16.73;;
69719;SDS011;56988;56.122;13.798;2024-02-21T01:44:41;50.30;;;17.47;;
69719;SDS011;56988;56.122;13.798;2024-02-21T01:45:41;48.55;;;16.52;;
69719;SDS011;56988;56.122;13.798;2024-02-21T01:46:41;51.47;;;17.20;;
69719;SDS011;56988;56.122;13.798;2024-02-21T01:47:41;49.77;;;16.73;;
69719;SDS011;56988;56.122;13.798;2024-02-21T01:48:42;42.73;;;15.93;;
69719;SDS011;56988;56.122;13.798;2024-02-21T01:49:42;39.95;;;15.82;;
69719;SDS011;56988;56.122;13.798;2024-02-21T01:51:43;49.57;;;15.23;;
69719;SDS011;56988;56.122;13.798;2024-02-21T01:52:44;46.95;;;14.57;;
69719;SDS011;56988;56.122;13.798;2024-02-21T01:53:46;50.60;;;15.30;;
69719;SDS011;56988;56.122;13.798;2024-02-21T01:54:46;49.97;;;15.85;;
69719;SDS011;56988;56.122;13.798;2024-02-21T01:56:47;38.17;;;12.95;;
69719;SDS011;56988;56.122;13.798;2024-02-21T01:57:47;41.65;;;12.68;;
69719;SDS011;56988;56.122;13.798;2024-02-21T01:58:48;28.90;;;12.77;;
69719;SDS011;56988;56.122;13.798;2024-02-21T01:59:48;32.13;;;11.65;;
69719;SDS011;56988;56.122;13.798;2024-02-21T02:00:48;37.50;;;12.88;;
69719;SDS011;56988;56.122;13.798;2024-02-21T02:01:50;34.03;;;12.35;;
69719;SDS011;56988;56.122;13.798;2024-02-21T02:03:51;28.73;;;10.83;;
69719;SDS011;56988;56.122;13.798;2024-02-21T02:04:52;29.65;;;11.02;;
69719;SDS011;56988;56.122;13.798;2024-02-21T02:05:52;35.00;;;11.40;;
69719;SDS011;56988;56.122;13.798;2024-02-21T02:06:54;27.67;;;11.67;;
69719;SDS011;56988;56.122;13.798;2024-02-21T02:07:54;38.00;;;12.63;;
69719;SDS011;56988;56.122;13.798;2024-02-21T02:08:54;35.43;;;11.47;;
69719;SDS011;56988;56.122;13.798;2024-02-21T02:09:55;28.33;;;10.15;;
69719;SDS011;56988;56.122;13.798;2024-02-21T02:10:55;32.17;;;11.82;;
69719;SDS011;56988;56.122;13.798;2024-02-21T02:11:56;27.10;;;11.18;;
69719;SDS011;56988;56.122;13.798;2024-02-21T02:12:58;35.13;;;10.02;;
69719;SDS011;56988;56.122;13.798;2024-02-21T02:13:58;21.20;;;9.70;;
69719;SDS011;56988;56.122;13.798;2024-02-21T02:15:02;21.85;;;9.25;;
69719;SDS011;56988;56.122;13.798;2024-02-21T02:16:04;23.75;;;9.93;;
69719;SDS011;56988;56.122;13.798;2024-02-21T02:17:05;29.48;;;9.75;;
69719;SDS011;56988;56.122;13.798;2024-02-21T02:18:05;24.37;;;9.20;;
69719;SDS011;56988;56.122;13.798;2024-02-21T02:19:05;20.90;;;9.47;;
69719;SDS011;56988;56.122;13.798;2024-02-21T02:20:05;24.93;;;9.70;;
69719;SDS011;56988;56.122;13.798;2024-02-21T02:21:08;33.60;;;10.50;;
69719;SDS011;56988;56.122;13.798;2024-02-21T02:22:22;18.65;;;8.68;;
69719;SDS011;56988;56.122;13.798;2024-02-21T02:24:23;22.17;;;8.73;;
69719;SDS011;56988;56.122;13.798;2024-02-21T02:25:24;24.17;;;9.40;;
69719;SDS011;56988;56.122;13.798;2024-02-21T02:26:24;23.08;;;9.32;;
69719;SDS011;56988;56.122;13.798;2024-02-21T02:27:25;19.63;;;9.02;;
69719;SDS011;56988;56.122;13.798;2024-02-21T02:28:25;20.63;;;8.83;;
69719;SDS011;56988;56.122;13.798;2024-02-21T02:29:25;24.97;;;9.37;;
69719;SDS011;56988;56.122;13.798;2024-02-21T02:30:25;24.77;;;9.50;;
69719;SDS011;56988;56.122;13.798;2024-02-21T02:31:25;25.83;;;10.40;;
69719;SDS011;56988;56.122;13.798;2024-02-21T02:32:26;19.23;;;9.23;;
69719;SDS011;56988;56.122;13.798;2024-02-21T02:33:26;21.90;;;9.52;;
69719;SDS011;56988;56.122;13.798;2024-02-21T02:34:26;23.83;;;8.35;;
69719;SDS011;56988;56.122;13.798;2024-02-21T02:35:26;16.50;;;8.85;;
69719;SDS011;56988;56.122;13.798;2024-02-21T02:36:27;20.40;;;8.60;;
69719;SDS011;56988;56.122;13.798;2024-02-21T02:37:27;25.67;;;9.13;;
69719;SDS011;56988;56.122;13.798;2024-02-21T02:38:27;21.47;;;9.50;;
69719;SDS011;56988;56.122;13.798;2024-02-21T02:39:27;20.58;;;8.75;;
69719;SDS011;56988;56.122;13.798;2024-02-21T02:40:27;26.83;;;9.27;;
69719;SDS011;56988;56.122;13.798;2024-02-21T02:41:28;25.33;;;9.50;;
69719;SDS011;56988;56.122;13.798;2024-02-21T02:42:28;18.67;;;8.40;;
69719;SDS011;56988;56.122;13.798;2024-02-21T02:43:28;21.53;;;9.13;;
69719;SDS011;56988;56.122;13.798;2024-02-21T02:44:28;19.80;;;8.40;;
69719;SDS011;56988;56.122;13.798;2024-02-21T02:45:28;21.57;;;8.33;;
69719;SDS011;56988;56.122;13.798;2024-02-21T02:46:29;13.63;;;7.87;;
69719;SDS011;56988;56.122;13.798;2024-02-21T02:47:29;19.90;;;8.53;;
69719;SDS011;56988;56.122;13.798;2024-02-21T02:49:29;16.63;;;7.10;;
69719;SDS011;56988;56.122;13.798;2024-02-21T02:50:29;18.17;;;8.17;;
69719;SDS011;56988;56.122;13.798;2024-02-21T02:51:30;15.88;;;7.93;;
69719;SDS011;56988;56.122;13.798;2024-02-21T02:52:30;18.40;;;8.37;;
69719;SDS011;56988;56.122;13.798;2024-02-21T02:54:30;16.43;;;8.10;;
69719;SDS011;56988;56.122;13.798;2024-02-21T02:55:30;18.00;;;7.57;;
69719;SDS011;56988;56.122;13.798;2024-02-21T02:56:30;24.33;;;8.73;;
69719;SDS011;56988;56.122;13.798;2024-02-21T02:57:31;19.77;;;7.95;;
69719;SDS011;56988;56.122;13.798;2024-02-21T02:59:31;21.03;;;8.80;;
69719;SDS011;56988;56.122;13.798;2024-02-21T03:00:32;21.30;;;9.50;;
69719;SDS011;56988;56.122;13.798;2024-02-21T03:01:36;20.30;;;8.25;;
69719;SDS011;56988;56.122;13.798;2024-02-21T03:02:37;20.85;;;8.82;;
69719;SDS011;56988;56.122;13.798;2024-02-21T03:03:37;17.98;;;8.50;;
69719;SDS011;56988;56.122;13.798;2024-02-21T03:05:37;24.60;;;8.53;;
69719;SDS011;56988;56.122;13.798;2024-02-21T03:06:38;16.60;;;8.77;;
69719;SDS011;56988;56.122;13.798;2024-02-21T03:07:38;19.65;;;9.55;;
69719;SDS011;56988;56.122;13.798;2024-02-21T03:08:38;20.83;;;9.37;;
69719;SDS011;56988;56.122;13.798;2024-02-21T03:09:40;26.48;;;10.00;;
69719;SDS011;56988;56.122;13.798;2024-02-21T03:10:40;23.83;;;10.73;;
69719;SDS011;56988;56.122;13.798;2024-02-21T03:11:41;24.15;;;10.35;;
69719;SDS011;56988;56.122;13.798;2024-02-21T03:12:43;25.35;;;10.68;;
69719;SDS011;56988;56.122;13.798;2024-02-21T03:13:43;22.33;;;10.03;;
69719;SDS011;56988;56.122;13.798;2024-02-21T03:15:43;28.30;;;10.77;;
69719;SDS011;56988;56.122;13.798;2024-02-21T03:16:43;28.10;;;12.27;;
69719;SDS011;56988;56.122;13.798;2024-02-21T03:17:44;26.67;;;10.97;;
69719;SDS011;56988;56.122;13.798;2024-02-21T03:18:44;30.02;;;11.45;;
69719;SDS011;56988;56.122;13.798;2024-02-21T03:19:44;30.87;;;12.13;;
69719;SDS011;56988;56.122;13.798;2024-02-21T03:20:44;28.33;;;12.83;;
69719;SDS011;56988;56.122;13.798;2024-02-21T03:21:44;32.03;;;12.65;;
69719;SDS011;56988;56.122;13.798;2024-02-21T03:22:45;26.00;;;12.03;;
69719;SDS011;56988;56.122;13.798;2024-02-21T03:23:45;29.88;;;12.63;;
69719;SDS011;56988;56.122;13.798;2024-02-21T03:24:45;26.20;;;12.10;;
69719;SDS011;56988;56.122;13.798;2024-02-21T03:25:45;34.03;;;13.50;;
69719;SDS011;56988;56.122;13.798;2024-02-21T03:26:46;31.48;;;13.25;;
69719;SDS011;56988;56.122;13.798;2024-02-21T03:27:47;36.28;;;13.48;;
69719;SDS011;56988;56.122;13.798;2024-02-21T03:28:48;35.30;;;14.37;;
69719;SDS011;56988;56.122;13.798;2024-02-21T03:29:48;32.78;;;13.75;;
69719;SDS011;56988;56.122;13.798;2024-02-21T03:30:49;34.27;;;14.13;;
69719;SDS011;56988;56.122;13.798;2024-02-21T03:31:49;41.27;;;15.63;;
69719;SDS011;56988;56.122;13.798;2024-02-21T03:32:49;40.85;;;14.40;;
69719;SDS011;56988;56.122;13.798;2024-02-21T03:33:49;41.20;;;15.30;;
69719;SDS011;56988;56.122;13.798;2024-02-21T03:34:50;47.05;;;15.75;;
69719;SDS011;56988;56.122;13.798;2024-02-21T03:35:50;41.55;;;15.77;;
69719;SDS011;56988;56.122;13.798;2024-02-21T03:36:50;43.63;;;16.45;;
69719;SDS011;56988;56.122;13.798;2024-02-21T03:37:50;37.90;;;15.90;;
69719;SDS011;56988;56.122;13.798;2024-02-21T03:38:50;41.90;;;14.83;;
69719;SDS011;56988;56.122;13.798;2024-02-21T03:39:51;51.97;;;17.67;;
69719;SDS011;56988;56.122;13.798;2024-02-21T03:40:51;40.47;;;17.00;;
69719;SDS011;56988;56.122;13.798;2024-02-21T03:41:51;41.47;;;16.38;;
69719;SDS011;56988;56.122;13.798;2024-02-21T03:42:52;38.40;;;16.90;;
69719;SDS011;56988;56.122;13.798;2024-02-21T03:43:52;37.23;;;16.50;;
69719;SDS011;56988;56.122;13.798;2024-02-21T03:45:52;34.67;;;14.43;;
69719;SDS011;56988;56.122;13.798;2024-02-21T03:46:52;42.93;;;17.20;;
69719;SDS011;56988;56.122;13.798;2024-02-21T03:47:53;44.10;;;18.08;;
69719;SDS011;56988;56.122;13.798;2024-02-21T03:48:53;46.28;;;17.10;;
69719;SDS011;56988;56.122;13.798;2024-02-21T03:50:53;42.63;;;16.90;;
69719;SDS011;56988;56.122;13.798;2024-02-21T03:51:54;41.70;;;17.20;;
69719;SDS011;56988;56.122;13.798;2024-02-21T03:52:54;48.58;;;17.85;;
69719;SDS011;56988;56.122;13.798;2024-02-21T03:53:54;47.92;;;18.13;;
69719;SDS011;56988;56.122;13.798;2024-02-21T03:54:55;53.93;;;18.10;;
69719;SDS011;56988;56.122;13.798;2024-02-21T03:55:55;54.00;;;19.57;;
69719;SDS011;56988;56.122;13.798;2024-02-21T03:56:56;50.72;;;19.05;;
69719;SDS011;56988;56.122;13.798;2024-02-21T03:57:56;48.63;;;17.47;;
69719;SDS011;56988;56.122;13.798;2024-02-21T03:58:56;45.27;;;17.50;;
69719;SDS011;56988;56.122;13.798;2024-02-21T03:59:58;57.00;;;20.00;;
69719;SDS011;56988;56.122;13.798;2024-02-21T04:01:01;47.20;;;18.33;;
69719;SDS011;56988;56.122;13.798;2024-02-21T04:02:01;56.42;;;19.88;;
69719;SDS011;56988;56.122;13.798;2024-02-21T04:03:04;49.78;;;19.48;;
69719;SDS011;56988;56.122;13.798;2024-02-21T04:04:04;58.73;;;20.80;;
69719;SDS011;56988;56.122;13.798;2024-02-21T04:06:05;39.55;;;14.98;;
69719;SDS011;56988;56.122;13.798;2024-02-21T04:07:05;47.33;;;18.35;;
69719;SDS011;56988;56.122;13.798;2024-02-21T04:09:06;42.93;;;17.53;;
69719;SDS011;56988;56.122;13.798;2024-02-21T04:10:07;45.83;;;17.53;;
69719;SDS011;56988;56.122;13.798;2024-02-21T04:11:07;47.13;;;17.48;;
69719;SDS011;56988;56.122;13.798;2024-02-21T04:12:08;52.88;;;18.58;;
69719;SDS011;56988;56.122;13.798;2024-02-21T04:13:08;47.63;;;17.25;;
69719;SDS011;56988;56.122;13.798;2024-02-21T04:15:09;40.23;;;15.77;;
69719;SDS011;56988;56.122;13.798;2024-02-21T04:16:09;41.60;;;15.93;;
69719;SDS011;56988;56.122;13.798;2024-02-21T04:17:10;40.28;;;15.20;;
69719;SDS011;56988;56.122;13.798;2024-02-21T04:18:10;42.92;;;15.70;;
69719;SDS011;56988;56.122;13.798;2024-02-21T04:19:10;40.47;;;15.97;;
69719;SDS011;56988;56.122;13.798;2024-02-21T04:20:13;38.45;;;15.05;;
69719;SDS011;56988;56.122;13.798;2024-02-21T04:21:14;33.97;;;14.25;;
69719;SDS011;56988;56.122;13.798;2024-02-21T04:22:14;37.67;;;14.65;;
69719;SDS011;56988;56.122;13.798;2024-02-21T04:23:15;29.00;;;13.93;;
69719;SDS011;56988;56.122;13.798;2024-02-21T04:24:15;38.38;;;15.20;;
69719;SDS011;56988;56.122;13.798;2024-02-21T04:25:15;27.10;;;12.80;;
69719;SDS011;56988;56.122;13.798;2024-02-21T04:26:15;33.50;;;13.30;;
69719;SDS011;56988;56.122;13.798;2024-02-21T04:27:15;33.83;;;13.40;;
69719;SDS011;56988;56.122;13.798;2024-02-21T04:28:16;31.47;;;12.57;;
69719;SDS011;56988;56.122;13.798;2024-02-21T04:30:16;28.30;;;12.10;;
69719;SDS011;56988;56.122;13.798;2024-02-21T04:32:17;31.53;;;13.13;;
69719;SDS011;56988;56.122;13.798;2024-02-21T04:33:17;30.27;;;12.07;;
69719;SDS011;56988;56.122;13.798;2024-02-21T04:35:17;29.87;;;10.90;;
69719;SDS011;56988;56.122;13.798;2024-02-21T04:36:18;28.33;;;11.65;;
69719;SDS011;56988;56.122;13.798;2024-02-21T04:37:18;29.00;;;11.73;;
69719;SDS011;56988;56.122;13.798;2024-02-21T04:38:18;29.30;;;11.98;;
69719;SDS011;56988;56.122;13.798;2024-02-21T04:39:19;26.10;;;11.03;;
69719;SDS011;56988;56.122;13.798;2024-02-21T04:40:19;26.90;;;10.48;;
69719;SDS011;56988;56.122;13.798;2024-02-21T04:41:19;24.17;;;10.87;;
69719;SDS011;56988;56.122;13.798;2024-02-21T04:42:19;26.50;;;10.37;;
69719;SDS011;56988;56.122;13.798;2024-02-21T04:43:19;23.63;;;10.23;;
69719;SDS011;56988;56.122;13.798;2024-02-21T04:44:20;24.03;;;10.17;;
69719;SDS011;56988;56.122;13.798;2024-02-21T04:45:22;17.23;;;8.63;;
69719;SDS011;56988;56.122;13.798;2024-02-21T04:46:22;21.83;;;9.53;;
69719;SDS011;56988;56.122;13.798;2024-02-21T04:47:22;20.00;;;8.60;;
69719;SDS011;56988;56.122;13.798;2024-02-21T04:48:26;21.45;;;9.00;;
69719;SDS011;56988;56.122;13.798;2024-02-21T04:49:26;16.03;;;8.27;;
69719;SDS011;56988;56.122;13.798;2024-02-21T04:50:27;20.20;;;7.93;;
69719;SDS011;56988;56.122;13.798;2024-02-21T04:52:27;16.07;;;8.10;;
69719;SDS011;56988;56.122;13.798;2024-02-21T04:54:28;16.60;;;6.77;;
69719;SDS011;56988;56.122;13.798;2024-02-21T04:55:28;16.67;;;7.10;;
69719;SDS011;56988;56.122;13.798;2024-02-21T04:56:28;12.67;;;7.27;;
69719;SDS011;56988;56.122;13.798;2024-02-21T04:57:28;19.17;;;7.67;;
69719;SDS011;56988;56.122;13.798;2024-02-21T04:58:28;16.33;;;7.07;;
69719;SDS011;56988;56.122;13.798;2024-02-21T04:59:29;15.97;;;7.23;;
69719;SDS011;56988;56.122;13.798;2024-02-21T05:00:29;14.65;;;6.45;;
69719;SDS011;56988;56.122;13.798;2024-02-21T05:01:30;19.65;;;7.05;;
69719;SDS011;56988;56.122;13.798;2024-02-21T05:02:31;12.90;;;6.68;;
69719;SDS011;56988;56.122;13.798;2024-02-21T05:03:31;13.80;;;6.03;;
69719;SDS011;56988;56.122;13.798;2024-02-21T05:04:31;14.07;;;6.37;;
69719;SDS011;56988;56.122;13.798;2024-02-21T05:05:31;13.97;;;6.43;;
69719;SDS011;56988;56.122;13.798;2024-02-21T05:06:31;11.23;;;6.40;;
69719;SDS011;56988;56.122;13.798;2024-02-21T05:07:32;12.48;;;6.22;;
69719;SDS011;56988;56.122;13.798;2024-02-21T05:08:32;11.38;;;5.40;;
69719;SDS011;56988;56.122;13.798;2024-02-21T05:09:32;10.47;;;5.47;;
69719;SDS011;56988;56.122;13.798;2024-02-21T05:10:32;12.27;;;5.83;;
69719;SDS011;56988;56.122;13.798;2024-02-21T05:11:32;10.27;;;5.83;;
69719;SDS011;56988;56.122;13.798;2024-02-21T05:12:33;10.50;;;5.23;;
69719;SDS011;56988;56.122;13.798;2024-02-21T05:14:33;17.07;;;5.67;;
69719;SDS011;56988;56.122;13.798;2024-02-21T05:15:33;8.77;;;4.87;;
69719;SDS011;56988;56.122;13.798;2024-02-21T05:16:33;9.90;;;4.97;;
69719;SDS011;56988;56.122;13.798;2024-02-21T05:17:33;11.68;;;5.10;;
69719;SDS011;56988;56.122;13.798;2024-02-21T05:18:34;11.47;;;5.90;;
69719;SDS011;56988;56.122;13.798;2024-02-21T05:19:34;12.48;;;4.88;;
69719;SDS011;56988;56.122;13.798;2024-02-21T05:20:34;8.82;;;4.70;;
69719;SDS011;56988;56.122;13.798;2024-02-21T05:21:34;6.43;;;4.13;;
69719;SDS011;56988;56.122;13.798;2024-02-21T05:22:34;12.87;;;4.67;;
69719;SDS011;56988;56.122;13.798;2024-02-21T05:23:35;9.63;;;4.03;;
69719;SDS011;56988;56.122;13.798;2024-02-21T05:24:35;7.67;;;4.20;;
69719;SDS011;56988;56.122;13.798;2024-02-21T05:26:36;7.47;;;4.10;;
69719;SDS011;56988;56.122;13.798;2024-02-21T05:27:36;5.20;;;3.50;;
69719;SDS011;56988;56.122;13.798;2024-02-21T05:28:38;5.93;;;3.50;;
69719;SDS011;56988;56.122;13.798;2024-02-21T05:29:38;7.03;;;3.23;;
69719;SDS011;56988;56.122;13.798;2024-02-21T05:30:38;6.47;;;3.45;;
69719;SDS011;56988;56.122;13.798;2024-02-21T05:32:53;5.18;;;2.90;;
69719;SDS011;56988;56.122;13.798;2024-02-21T05:33:53;4.23;;;3.07;;
69719;SDS011;56988;56.122;13.798;2024-02-21T05:34:53;4.37;;;3.07;;
69719;SDS011;56988;56.122;13.798;2024-02-21T05:35:53;4.30;;;2.92;;
69719;SDS011;56988;56.122;13.798;2024-02-21T05:36:53;4.68;;;3.00;;
69719;SDS011;56988;56.122;13.798;2024-02-21T05:37:54;3.85;;;2.70;;
69719;SDS011;56988;56.122;13.798;2024-02-21T05:39:54;3.57;;;2.40;;
69719;SDS011;56988;56.122;13.798;2024-02-21T05:41:54;3.83;;;2.30;;
69719;SDS011;56988;56.122;13.798;2024-02-21T05:42:55;4.38;;;2.30;;
69719;SDS011;56988;56.122;13.798;2024-02-21T05:43:55;3.83;;;2.30;;
69719;SDS011;56988;56.122;13.798;2024-02-21T05:44:55;8.10;;;2.10;;
69719;SDS011;56988;56.122;13.798;2024-02-21T05:45:55;2.20;;;2.00;;
69719;SDS011;56988;56.122;13.798;2024-02-21T05:46:56;4.32;;;2.10;;
69719;SDS011;56988;56.122;13.798;2024-02-21T05:47:56;4.97;;;1.90;;
69719;SDS011;56988;56.122;13.798;2024-02-21T05:49:57;2.47;;;1.80;;
69719;SDS011;56988;56.122;13.798;2024-02-21T05:50:57;2.23;;;2.00;;
69719;SDS011;56988;56.122;13.798;2024-02-21T05:51:57;2.27;;;1.90;;
69719;SDS011;56988;56.122;13.798;2024-02-21T05:52:57;3.30;;;1.60;;
69719;SDS011;56988;56.122;13.798;2024-02-21T05:53:58;3.87;;;1.90;;
69719;SDS011;56988;56.122;13.798;2024-02-21T05:54:58;2.53;;;1.80;;
69719;SDS011;56988;56.122;13.798;2024-02-21T05:55:58;3.27;;;1.50;;
69719;SDS011;56988;56.122;13.798;2024-02-21T05:56:58;2.63;;;1.57;;
69719;SDS011;56988;56.122;13.798;2024-02-21T05:57:59;3.00;;;1.60;;
69719;SDS011;56988;56.122;13.798;2024-02-21T05:58:59;2.37;;;1.77;;
69719;SDS011;56988;56.122;13.798;2024-02-21T06:01:00;5.50;;;1.92;;
69719;SDS011;56988;56.122;13.798;2024-02-21T06:02:01;4.63;;;2.00;;
69719;SDS011;56988;56.122;13.798;2024-02-21T06:03:03;2.67;;;1.70;;
69719;SDS011;56988;56.122;13.798;2024-02-21T06:04:04;2.10;;;1.80;;
69719;SDS011;56988;56.122;13.798;2024-02-21T06:05:04;2.73;;;1.40;;
69719;SDS011;56988;56.122;13.798;2024-02-21T06:06:07;5.20;;;1.80;;
69719;SDS011;56988;56.122;13.798;2024-02-21T06:07:07;2.57;;;1.70;;
69719;SDS011;56988;56.122;13.798;2024-02-21T06:08:08;3.25;;;1.83;;
69719;SDS011;56988;56.122;13.798;2024-02-21T06:09:09;2.47;;;1.77;;
69719;SDS011;56988;56.122;13.798;2024-02-21T06:10:09;6.37;;;1.97;;
69719;SDS011;56988;56.122;13.798;2024-02-21T06:12:09;6.32;;;1.92;;
69719;SDS011;56988;56.122;13.798;2024-02-21T06:13:09;3.93;;;1.70;;
69719;SDS011;56988;56.122;13.798;2024-02-21T06:14:10;1.73;;;1.50;;
69719;SDS011;56988;56.122;13.798;2024-02-21T06:16:10;2.37;;;1.70;;
69719;SDS011;56988;56.122;13.798;2024-02-21T06:17:10;4.60;;;1.87;;
69719;SDS011;56988;56.122;13.798;2024-02-21T06:18:12;3.42;;;1.80;;
69719;SDS011;56988;56.122;13.798;2024-02-21T06:19:12;3.50;;;1.80;;
69719;SDS011;56988;56.122;13.798;2024-02-21T06:20:12;2.97;;;1.95;;
69719;SDS011;56988;56.122;13.798;2024-02-21T06:21:12;5.13;;;1.97;;
69719;SDS011;56988;56.122;13.798;2024-02-21T06:22:13;5.90;;;2.10;;
69719;SDS011;56988;56.122;13.798;2024-02-21T06:24:13;3.13;;;1.83;;
69719;SDS011;56988;56.122;13.798;2024-02-21T06:25:13;3.03;;;1.85;;
69719;SDS011;56988;56.122;13.798;2024-02-21T06:27:14;5.50;;;1.60;;
69719;SDS011;56988;56.122;13.798;2024-02-21T06:28:16;4.47;;;1.80;;
69719;SDS011;56988;56.122;13.798;2024-02-21T06:29:16;6.30;;;1.90;;
69719;SDS011;56988;56.122;13.798;2024-02-21T06:30:16;3.88;;;1.60;;